EGCCEGLC

Guest
Details From EGCC - Manchester
To EGLC - London City
Flight Number -
Tags Routegen
Created
Modified
Stats Distance 140 nm / 259 km
Max Altitude 0 ft / 0 m
Waypoints 2
Social Downloads 25
Likes 0
Share VATSIM

Download

Looking for another format? Having issues loading an existing format? Contact us
Advertisement - Login to hide

Notes

None

Route

EGCC EGLC

ID Type Via Altitude (ft/m) Position (lat/lon) Dist (leg/tot) Name
O EGCC APT - 0 / 0 53.34514 / -2.29274 - / 0 nm
O EGLC APT - 0 / 0 51.50558 / 0.04414 139 / 139 nm

Altitude Profile

Advertisement - Login to hide

EGCC

Details ICAO EGCC (MAN)
Name Manchester Intl
Region United Kingdom
Timezone Europe/London (UTC+1.0)
Stats Elevation 256 ft / 78 m (AMSL)
Location 53.347100° -2.283930°
Runways 2
Magnetic Variation 1.327° W

METAR

EGCC 212120Z AUTO 32007KT 9999 SCT032 10/05 Q1032 NOSIG

Decode

TAF

TAF EGCC 211657Z 2118/2224 32010KT 9999 SCT030 BECMG 2203/2206 VRB03KT BECMG 2209/2212 29010KT PROB30 TEMPO 2218/2224 28016G26KT BKN014

Decode

Departure Runways

ID Width Length Bearing (true/mag) Surface Threshold Overrun Markings Lighting
05L 151 ft / 46 m 9,981 ft / 3,042 m 51.01° / 52.34° ASPHALT 1,401 ft / 427 m 0 ft / 0 m UK-PREC-APP CENTERLINE EDGE THRESHOLD CALVERT TDZ REIL-UNI
05R 144 ft / 44 m 10,015 ft / 3,053 m 50.97° / 52.30° ASPHALT 0 ft / 0 m 0 ft / 0 m UK-PREC-APP CENTERLINE EDGE THRESHOLD CALVERT TDZ REIL-UNI
23L 144 ft / 44 m 10,015 ft / 3,053 m 231.00° / 232.33° ASPHALT 587 ft / 179 m 0 ft / 0 m UK-PREC-APP CENTERLINE EDGE THRESHOLD CALVERT TDZ REIL-UNI
23R 151 ft / 46 m 9,981 ft / 3,042 m 231.04° / 232.37° ASPHALT 597 ft / 182 m 200 ft / 61 m UK-PREC-APP CENTERLINE EDGE THRESHOLD CALVERT TDZ REIL-UNI

EGLC

Details ICAO EGLC (LCY)
Name London City
Region United Kingdom
Timezone Europe/London (UTC+1.0)
Stats Elevation 19 ft / 6 m (AMSL)
Location 51.505200° 0.055183°
Runways 1
Magnetic Variation 0.260° W

METAR

EGLC 212120Z AUTO 33008KT 280V010 9999 -RA BKN013 BKN017 OVC027 16/13 Q1029

Decode

TAF

Not found

Destination Runways

ID Width Length Bearing (true/mag) Surface Threshold Overrun Markings Lighting
09 98 ft / 30 m 4,914 ft / 1,498 m 92.88° / 93.14° ASPHALT 308 ft / 94 m 190 ft / 58 m UK-PREC-APP CENTERLINE EDGE THRESHOLD MALS REIL-OMNI
27 98 ft / 30 m 4,914 ft / 1,498 m 272.90° / 273.16° ASPHALT 233 ft / 71 m 302 ft / 92 m UK-PREC-APP CENTERLINE EDGE THRESHOLD MALS REIL-OMNI

Approach Navaids

Runway Type Ident Frequency Range Bearing (true/mag) Slope Elevation
09 LOC-ILS ILST 111.15 MHz 25 nm / 46 km 92.89° / 93.15 ° - 19 ft / 6 m (AMSL)
09 GS ILST 111.15 MHz 10 nm / 19 km 92.87° / 93.13 ° 5.50° 19 ft / 6 m (AMSL)
09 DME ILST 111.15 MHz 18 nm / 33 km - - 48 ft / 15 m (AMSL)
27 DME ILSR 111.15 MHz 18 nm / 33 km - - 48 ft / 15 m (AMSL)
27 GS ILSR 111.15 MHz 10 nm / 19 km 272.87° / 273.13 ° 5.50° 19 ft / 6 m (AMSL)
27 LOC-ILS ILSR 111.15 MHz 25 nm / 46 km 272.89° / 273.15 ° - 19 ft / 6 m (AMSL)

Popular Alternatives